createdAt,value
2023-03-26T00:00:05.865Z,99674.63
2023-03-26T00:00:26.418Z,99673.00
2023-03-26T00:00:39.238Z,99676.47
2023-03-26T00:00:52.391Z,99677.28
2023-03-26T00:01:06.511Z,99673.81
2023-03-26T00:01:21.418Z,99679.94
2023-03-26T00:01:34.059Z,99677.28
2023-03-26T00:01:47.997Z,99677.28
2023-03-26T00:02:00.874Z,99677.47
2023-03-26T00:02:15.399Z,99679.13
2023-03-26T00:02:28.407Z,99678.31
2023-03-26T00:02:41.290Z,99680.13
2023-03-26T00:02:53.331Z,99673.00
2023-03-26T00:03:05.488Z,99672.13
2023-03-26T00:03:20.415Z,99680.97
2023-03-26T00:03:33.433Z,99673.16
2023-03-26T00:03:47.648Z,99674.81
2023-03-26T00:04:01.027Z,99667.03
2023-03-26T00:04:15.801Z,99671.50
2023-03-26T00:04:28.225Z,99666.81
2023-03-26T00:04:44.094Z,99667.66
2023-03-26T00:04:58.355Z,99669.47
2023-03-26T00:05:11.487Z,99675.66
2023-03-26T00:05:24.168Z,99664.16
2023-03-26T00:05:36.971Z,99675.81
2023-03-26T00:06:01.625Z,99673.16
2023-03-26T00:06:17.587Z,99662.69
2023-03-26T00:06:33.769Z,99654.72
2023-03-26T00:06:46.033Z,99660.69
2023-03-26T00:06:59.644Z,99659.03
2023-03-26T00:07:12.736Z,99654.94
2023-03-26T00:07:25.210Z,99669.69
2023-03-26T00:07:41.633Z,99666.19
2023-03-26T00:07:55.928Z,99659.22
2023-03-26T00:08:10.491Z,99663.53
2023-03-26T00:08:23.805Z,99657.59
2023-03-26T00:08:41.653Z,99659.22
2023-03-26T00:08:55.961Z,99660.84
2023-03-26T00:09:14.151Z,99658.19
2023-03-26T00:09:26.746Z,99658.03
2023-03-26T00:09:42.237Z,99662.53
2023-03-26T00:09:54.544Z,99659.03
2023-03-26T00:10:13.106Z,99657.59
2023-03-26T00:10:25.515Z,99650.03
2023-03-26T00:10:40.101Z,99651.88
2023-03-26T00:10:52.768Z,99659.03
2023-03-26T00:11:06.440Z,99653.50
2023-03-26T00:11:21.471Z,99660.84
2023-03-26T00:11:36.481Z,99662.53
2023-03-26T00:11:49.055Z,99670.50
2023-03-26T00:12:04.369Z,99667.84
2023-03-26T00:12:19.476Z,99671.50
2023-03-26T00:12:32.463Z,99669.69
2023-03-26T00:12:45.424Z,99667.03
2023-03-26T00:12:58.868Z,99664.38
2023-03-26T00:13:17.713Z,99668.03
2023-03-26T00:13:30.900Z,99664.56
2023-03-26T00:13:44.561Z,99672.34
2023-03-26T00:13:58.133Z,99667.59
2023-03-26T00:14:13.215Z,99674.38
2023-03-26T00:14:26.828Z,99668.25
2023-03-26T00:14:39.837Z,99670.06
2023-03-26T00:14:53.439Z,99670.06
2023-03-26T00:15:06.636Z,99665.75
2023-03-26T00:15:21.571Z,99670.25
2023-03-26T00:15:35.722Z,99672.06
2023-03-26T00:15:49.827Z,99666.75
2023-03-26T00:16:03.133Z,99671.25
2023-03-26T00:16:19.093Z,99672.28
2023-03-26T00:16:33.036Z,99667.78
2023-03-26T00:16:46.322Z,99669.63
2023-03-26T00:16:58.603Z,99669.63
2023-03-26T00:17:11.550Z,99663.50
2023-03-26T00:17:24.398Z,99666.97
2023-03-26T00:17:38.729Z,99662.47
2023-03-26T00:17:51.695Z,99658.97
2023-03-26T00:18:04.585Z,99659.81
2023-03-26T00:18:18.569Z,99663.28
2023-03-26T00:18:31.641Z,99655.50
2023-03-26T00:18:44.622Z,99656.31
2023-03-26T00:18:58.007Z,99654.41
2023-03-26T00:19:11.549Z,99657.31
2023-03-26T00:19:24.020Z,99655.69
2023-03-26T00:19:36.806Z,99660.81
2023-03-26T00:19:51.367Z,99666.16
2023-03-26T00:20:04.425Z,99662.00
2023-03-26T00:20:16.895Z,99666.34
2023-03-26T00:20:31.633Z,99662.63
2023-03-26T00:20:44.299Z,99659.16
2023-03-26T00:20:57.065Z,99661.00
2023-03-26T00:21:14.938Z,99656.50
2023-03-26T00:21:29.038Z,99662.00
2023-03-26T00:21:41.923Z,99659.97
2023-03-26T00:21:56.503Z,99663.66
2023-03-26T00:22:08.857Z,99655.69
2023-03-26T00:22:21.459Z,99662.63
2023-03-26T00:22:34.361Z,99656.69
2023-03-26T00:22:48.574Z,99663.66
2023-03-26T00:23:01.050Z,99660.19
2023-03-26T00:23:13.561Z,99657.31
2023-03-26T00:23:25.573Z,99661.00
2023-03-26T00:23:39.430Z,99658.34
2023-03-26T00:23:56.891Z,99660.19
2023-03-26T00:24:11.588Z,99660.19
2023-03-26T00:24:24.476Z,99659.34
2023-03-26T00:24:38.451Z,99655.69
2023-03-26T00:24:50.888Z,99667.31
2023-03-26T00:25:04.584Z,99660.19
2023-03-26T00:25:20.528Z,99659.16
2023-03-26T00:25:33.067Z,99667.31
2023-03-26T00:25:49.129Z,99664.47
2023-03-26T00:26:05.510Z,99663.66
2023-03-26T00:26:18.059Z,99660.19
2023-03-26T00:26:30.284Z,99667.31
2023-03-26T00:26:44.157Z,99673.50
2023-03-26T00:26:57.624Z,99659.34
2023-03-26T00:27:09.636Z,99665.50
2023-03-26T00:27:22.500Z,99654.88
2023-03-26T00:27:37.106Z,99662.41
2023-03-26T00:27:51.106Z,99667.31
2023-03-26T00:28:05.023Z,99665.50
2023-03-26T00:28:17.672Z,99665.69
2023-03-26T00:28:30.125Z,99663.03
2023-03-26T00:28:43.709Z,99667.53
2023-03-26T00:28:59.869Z,99661.19
2023-03-26T00:29:15.740Z,99664.88
2023-03-26T00:29:31.709Z,99665.50
2023-03-26T00:29:44.036Z,99664.66
2023-03-26T00:29:56.699Z,99660.19
2023-03-26T00:30:10.476Z,99664.66
2023-03-26T00:30:23.269Z,99667.97
2023-03-26T00:30:37.077Z,99658.34
2023-03-26T00:30:49.588Z,99659.16
2023-03-26T00:31:04.074Z,99669.00
2023-03-26T00:31:17.582Z,99667.16
2023-03-26T00:31:33.692Z,99669.81
2023-03-26T00:31:47.439Z,99672.47
2023-03-26T00:31:59.491Z,99662.63
2023-03-26T00:32:11.933Z,99665.31
2023-03-26T00:32:24.213Z,99665.50
2023-03-26T00:32:37.108Z,99664.47
2023-03-26T00:32:53.660Z,99656.06
2023-03-26T00:33:08.393Z,99663.03
2023-03-26T00:33:20.549Z,99651.56
2023-03-26T00:33:33.394Z,99663.84
2023-03-26T00:33:45.888Z,99661.00
2023-03-26T00:34:01.398Z,99663.66
2023-03-26T00:34:16.007Z,99661.19
2023-03-26T00:34:29.081Z,99655.88
2023-03-26T00:34:41.964Z,99654.41
2023-03-26T00:34:54.104Z,99658.34
2023-03-26T00:35:07.764Z,99663.84
2023-03-26T00:35:21.846Z,99657.72
2023-03-26T00:35:36.764Z,99660.38
2023-03-26T00:35:53.933Z,99658.75
2023-03-26T00:36:09.096Z,99654.88
2023-03-26T00:36:24.107Z,99657.72
2023-03-26T00:36:37.113Z,99661.19
2023-03-26T00:36:50.387Z,99663.03
2023-03-26T00:37:04.678Z,99661.41
2023-03-26T00:37:17.186Z,99665.69
2023-03-26T00:37:31.069Z,99655.88
2023-03-26T00:37:44.357Z,99659.34
2023-03-26T00:37:58.545Z,99662.22
2023-03-26T00:38:15.614Z,99662.00
2023-03-26T00:38:30.482Z,99655.88
2023-03-26T00:38:44.409Z,99652.56
2023-03-26T00:38:57.396Z,99662.22
2023-03-26T00:39:12.743Z,99654.22
2023-03-26T00:39:25.402Z,99658.75
2023-03-26T00:39:38.055Z,99656.06
2023-03-26T00:39:52.322Z,99649.53
2023-03-26T00:40:14.284Z,99666.34
2023-03-26T00:40:28.613Z,99657.53
2023-03-26T00:40:44.043Z,99658.53
2023-03-26T00:41:00.780Z,99658.75
2023-03-26T00:41:16.956Z,99656.91
2023-03-26T00:41:31.709Z,99656.69
2023-03-26T00:41:44.544Z,99655.88
2023-03-26T00:41:57.418Z,99661.19
2023-03-26T00:42:09.696Z,99651.75
2023-03-26T00:42:21.998Z,99654.88
2023-03-26T00:42:34.580Z,99657.53
2023-03-26T00:42:46.744Z,99654.88
2023-03-26T00:42:59.501Z,99657.72
2023-03-26T00:43:12.917Z,99651.38
2023-03-26T00:43:25.839Z,99653.03
2023-03-26T00:43:38.557Z,99653.03
2023-03-26T00:43:53.461Z,99655.06
2023-03-26T00:44:06.042Z,99651.38
2023-03-26T00:44:19.277Z,99653.03
2023-03-26T00:44:31.877Z,99653.03
2023-03-26T00:44:48.304Z,99643.38
2023-03-26T00:45:05.792Z,99656.91
2023-03-26T00:45:20.315Z,99648.09
2023-03-26T00:45:32.193Z,99653.19
2023-03-26T00:45:46.651Z,99653.41
2023-03-26T00:46:00.200Z,99658.75
2023-03-26T00:46:13.020Z,99656.06
2023-03-26T00:46:26.756Z,99655.88
2023-03-26T00:46:39.717Z,99657.88
2023-03-26T00:47:01.037Z,99655.22
2023-03-26T00:47:13.599Z,99649.91
2023-03-26T00:47:27.160Z,99650.75
2023-03-26T00:47:40.377Z,99650.75
2023-03-26T00:47:54.454Z,99647.25
2023-03-26T00:48:08.675Z,99648.91
2023-03-26T00:48:26.453Z,99652.56
2023-03-26T00:48:48.827Z,99660.75
2023-03-26T00:49:02.735Z,99658.28
2023-03-26T00:49:14.975Z,99659.72
2023-03-26T00:49:26.920Z,99654.41
2023-03-26T00:49:42.256Z,99645.63
2023-03-26T00:49:54.611Z,99651.75
2023-03-26T00:50:10.554Z,99647.47
2023-03-26T00:50:24.486Z,99650.94
2023-03-26T00:50:38.658Z,99643.94
2023-03-26T00:50:53.271Z,99642.31
2023-03-26T00:51:07.005Z,99647.63
2023-03-26T00:51:21.554Z,99650.31
2023-03-26T00:51:38.087Z,99653.78
2023-03-26T00:51:53.004Z,99644.97
2023-03-26T00:52:06.392Z,99647.47
2023-03-26T00:52:20.690Z,99656.25
2023-03-26T00:52:34.168Z,99651.75
2023-03-26T00:52:49.351Z,99652.56
2023-03-26T00:53:03.258Z,99640.28
2023-03-26T00:53:17.528Z,99645.63
2023-03-26T00:53:30.356Z,99649.91
2023-03-26T00:53:43.558Z,99640.28
2023-03-26T00:53:57.105Z,99650.75
2023-03-26T00:54:11.118Z,99644.81
2023-03-26T00:54:25.366Z,99655.22
2023-03-26T00:54:38.308Z,99650.13
2023-03-26T00:54:52.363Z,99644.81
2023-03-26T00:55:05.871Z,99640.28
2023-03-26T00:55:20.502Z,99645.78
2023-03-26T00:55:33.265Z,99639.66
2023-03-26T00:55:48.197Z,99644.97
2023-03-26T00:56:00.696Z,99639.84
2023-03-26T00:56:13.793Z,99640.69
2023-03-26T00:56:27.460Z,99643.34
2023-03-26T00:56:44.809Z,99645.78
2023-03-26T00:57:00.062Z,99638.84
2023-03-26T00:57:28.872Z,99638.84
2023-03-26T00:57:48.395Z,99638.84
2023-03-26T00:58:06.575Z,99642.31
2023-03-26T00:58:19.638Z,99644.97
2023-03-26T00:58:32.492Z,99641.50
2023-03-26T00:58:44.959Z,99642.69
2023-03-26T00:58:58.647Z,99644.97
2023-03-26T00:59:11.264Z,99638.19
2023-03-26T00:59:25.268Z,99639.66
2023-03-26T00:59:37.636Z,99635.16
2023-03-26T00:59:50.484Z,99634.34
2023-03-26T01:00:03.502Z,99633.53
2023-03-26T01:00:28.888Z,99634.50
2023-03-26T01:00:46.924Z,99635.38
2023-03-26T01:01:01.905Z,99632.88
2023-03-26T01:01:16.257Z,99632.88
2023-03-26T01:01:29.937Z,99629.38
2023-03-26T01:01:43.932Z,99639.16
2023-03-26T01:01:57.000Z,99636.50
2023-03-26T01:02:13.117Z,99637.53
2023-03-26T01:02:34.268Z,99633.03
2023-03-26T01:02:48.257Z,99637.53
2023-03-26T01:03:04.601Z,99633.03
2023-03-26T01:03:27.816Z,99626.25
2023-03-26T01:03:53.216Z,99633.25
2023-03-26T01:04:29.389Z,99628.91
2023-03-26T01:04:46.553Z,99629.94
2023-03-26T01:05:00.711Z,99622.97
2023-03-26T01:05:44.017Z,99631.13
2023-03-26T01:05:59.471Z,99631.13
2023-03-26T01:06:13.824Z,99638.09
2023-03-26T01:06:29.931Z,99640.94
2023-03-26T01:06:48.486Z,99634.63
2023-03-26T01:07:03.922Z,99631.13
2023-03-26T01:07:18.711Z,99632.97
2023-03-26T01:07:31.170Z,99627.66
2023-03-26T01:07:44.669Z,99632.16
2023-03-26T01:07:57.858Z,99628.03
2023-03-26T01:08:25.334Z,99636.84
2023-03-26T01:08:41.900Z,99631.50
2023-03-26T01:08:56.910Z,99636.03
2023-03-26T01:09:14.607Z,99633.53
2023-03-26T01:09:34.131Z,99630.88
2023-03-26T01:09:50.219Z,99631.50
2023-03-26T01:10:03.480Z,99629.66
2023-03-26T01:10:16.049Z,99630.69
2023-03-26T01:10:29.047Z,99631.50
2023-03-26T01:10:42.372Z,99629.03
2023-03-26T01:10:56.664Z,99624.56
2023-03-26T01:11:11.718Z,99625.56
2023-03-26T01:11:28.526Z,99634.56
2023-03-26T01:11:43.496Z,99635.38
2023-03-26T01:12:03.222Z,99624.91
2023-03-26T01:12:17.949Z,99628.59
2023-03-26T01:12:32.147Z,99619.19
2023-03-26T01:12:47.540Z,99626.13
2023-03-26T01:12:59.603Z,99625.13
2023-03-26T01:13:11.955Z,99629.44
2023-03-26T01:13:31.233Z,99623.28
2023-03-26T01:13:50.930Z,99625.94
2023-03-26T01:14:13.749Z,99634.09
2023-03-26T01:14:28.866Z,99628.78
2023-03-26T01:14:42.445Z,99635.78
2023-03-26T01:14:59.953Z,99633.13
2023-03-26T01:15:13.827Z,99634.09
2023-03-26T01:15:26.893Z,99627.34
2023-03-26T01:15:39.701Z,99634.94
2023-03-26T01:15:55.561Z,99629.59
2023-03-26T01:16:25.865Z,99630.25
2023-03-26T01:16:43.942Z,99631.28
2023-03-26T01:16:57.879Z,99625.31
2023-03-26T01:17:12.826Z,99633.75
2023-03-26T01:17:25.216Z,99638.22
2023-03-26T01:17:38.878Z,99632.91
2023-03-26T01:17:52.649Z,99633.94
2023-03-26T01:18:06.068Z,99636.41
2023-03-26T01:18:21.031Z,99639.06
2023-03-26T01:18:33.770Z,99636.41
2023-03-26T01:18:47.423Z,99643.53
2023-03-26T01:19:00.591Z,99637.22
2023-03-26T01:19:34.341Z,99642.53
2023-03-26T01:19:53.104Z,99640.06
2023-03-26T01:20:13.435Z,99638.44
2023-03-26T01:20:33.641Z,99633.94
2023-03-26T01:20:49.830Z,99643.53
2023-03-26T01:21:13.713Z,99643.75
2023-03-26T01:21:28.626Z,99650.06
2023-03-26T01:21:43.556Z,99641.09
2023-03-26T01:21:56.343Z,99647.22
2023-03-26T01:22:15.750Z,99640.25
2023-03-26T01:22:29.990Z,99648.88
2023-03-26T01:22:50.931Z,99649.06
2023-03-26T01:23:07.431Z,99640.44
2023-03-26T01:23:24.622Z,99645.56
2023-03-26T01:23:41.808Z,99646.59
2023-03-26T01:24:00.870Z,99650.06
2023-03-26T01:24:13.715Z,99644.75
2023-03-26T01:24:25.837Z,99639.44
2023-03-26T01:24:38.348Z,99643.28
2023-03-26T01:24:52.403Z,99646.13
2023-03-26T01:25:06.628Z,99645.94
2023-03-26T01:25:22.035Z,99647.63
2023-03-26T01:25:43.478Z,99648.63
2023-03-26T01:26:06.102Z,99644.31
2023-03-26T01:26:30.766Z,99643.47
2023-03-26T01:27:12.824Z,99638.16
2023-03-26T01:27:34.719Z,99636.53
2023-03-26T01:27:52.060Z,99639.19
2023-03-26T01:28:09.943Z,99639.19
2023-03-26T01:28:24.987Z,99641.66
2023-03-26T01:28:38.811Z,99636.53
2023-03-26T01:28:56.839Z,99640.81
2023-03-26T01:29:20.698Z,99639.81
2023-03-26T01:29:41.881Z,99646.97
2023-03-26T01:30:05.717Z,99646.13
2023-03-26T01:30:25.082Z,99640.00
2023-03-26T01:30:42.013Z,99644.50
2023-03-26T01:31:05.932Z,99637.72
2023-03-26T01:31:24.900Z,99642.22
2023-03-26T01:31:46.602Z,99643.03
2023-03-26T01:32:10.520Z,99643.03
2023-03-26T01:32:40.966Z,99650.22
2023-03-26T01:33:19.435Z,99647.72
2023-03-26T01:33:38.771Z,99642.78
2023-03-26T01:34:00.701Z,99647.25
2023-03-26T01:34:23.900Z,99637.66
2023-03-26T01:34:51.123Z,99640.69
2023-03-26T01:35:17.641Z,99636.38
2023-03-26T01:35:42.432Z,99643.34
2023-03-26T01:36:01.139Z,99643.53
2023-03-26T01:36:21.253Z,99637.41
2023-03-26T01:36:42.298Z,99639.22
2023-03-26T01:37:02.757Z,99634.09
2023-03-26T01:37:21.042Z,99639.41
2023-03-26T01:37:43.048Z,99643.06
2023-03-26T01:38:07.019Z,99642.25
2023-03-26T01:38:25.558Z,99651.06
2023-03-26T01:38:43.730Z,99652.06
2023-03-26T01:39:03.591Z,99651.06
2023-03-26T01:39:24.129Z,99647.75
2023-03-26T01:39:43.737Z,99646.13
2023-03-26T01:39:59.755Z,99656.56
2023-03-26T01:40:18.484Z,99647.75
2023-03-26T01:40:35.360Z,99642.66
2023-03-26T01:40:52.795Z,99649.59
2023-03-26T01:41:09.182Z,99645.31
2023-03-26T01:41:29.367Z,99654.09
2023-03-26T01:41:45.143Z,99648.97
2023-03-26T01:42:01.330Z,99644.50
2023-03-26T01:42:19.218Z,99650.78
2023-03-26T01:42:37.541Z,99651.63
2023-03-26T01:42:58.735Z,99652.63
2023-03-26T01:43:18.066Z,99654.47
2023-03-26T01:43:36.641Z,99658.94
2023-03-26T01:43:57.101Z,99654.84
2023-03-26T01:44:16.829Z,99653.03
2023-03-26T01:44:38.136Z,99655.88
2023-03-26T01:44:55.408Z,99656.84
2023-03-26T01:45:13.481Z,99653.38
2023-03-26T01:45:30.650Z,99660.53
2023-03-26T01:45:46.648Z,99652.75
2023-03-26T01:46:02.445Z,99655.59
2023-03-26T01:46:16.389Z,99655.78
2023-03-26T01:46:30.410Z,99659.06
2023-03-26T01:46:45.569Z,99653.94
2023-03-26T01:47:00.628Z,99660.91
2023-03-26T01:47:13.994Z,99660.06
2023-03-26T01:47:28.925Z,99654.97
2023-03-26T01:47:44.066Z,99659.25
2023-03-26T01:47:57.631Z,99654.97
2023-03-26T01:48:10.237Z,99656.78
2023-03-26T01:48:29.883Z,99653.50
2023-03-26T01:48:43.702Z,99660.63
2023-03-26T01:48:55.700Z,99654.50
2023-03-26T01:49:08.240Z,99659.81
2023-03-26T01:49:21.382Z,99649.34
2023-03-26T01:49:35.455Z,99658.19
2023-03-26T01:49:48.316Z,99657.34
2023-03-26T01:50:01.242Z,99653.84
2023-03-26T01:50:13.718Z,99651.59
2023-03-26T01:50:26.452Z,99655.06
2023-03-26T01:50:38.622Z,99655.22
2023-03-26T01:50:51.551Z,99651.75
2023-03-26T01:51:04.901Z,99658.09
2023-03-26T01:51:27.646Z,99651.50
2023-03-26T01:51:41.433Z,99647.00
2023-03-26T01:51:57.592Z,99653.13
2023-03-26T01:52:14.516Z,99650.84
2023-03-26T01:52:26.808Z,99644.56
2023-03-26T01:52:39.334Z,99651.50
2023-03-26T01:52:54.714Z,99654.31
2023-03-26T01:53:09.294Z,99651.88
2023-03-26T01:53:23.386Z,99651.66
2023-03-26T01:53:42.314Z,99645.72
2023-03-26T01:53:57.425Z,99647.56
2023-03-26T01:54:17.970Z,99650.84
2023-03-26T01:54:32.389Z,99650.22
2023-03-26T01:54:47.208Z,99654.53
2023-03-26T01:55:03.472Z,99644.25
2023-03-26T01:55:16.161Z,99654.53
2023-03-26T01:55:36.537Z,99649.22
2023-03-26T01:55:58.003Z,99644.91
2023-03-26T01:56:16.672Z,99644.72
2023-03-26T01:56:34.858Z,99645.72
2023-03-26T01:57:02.586Z,99646.56
2023-03-26T01:57:25.172Z,99640.97
2023-03-26T01:57:52.369Z,99648.38
2023-03-26T01:58:12.589Z,99648.38
2023-03-26T01:58:31.504Z,99644.91
2023-03-26T01:58:55.364Z,99651.03
2023-03-26T01:59:19.579Z,99646.75
2023-03-26T01:59:49.230Z,99647.94
2023-03-26T02:00:16.384Z,99650.22
2023-03-26T02:00:32.868Z,99651.25
2023-03-26T02:00:53.480Z,99647.56
2023-03-26T02:01:16.370Z,99651.25
2023-03-26T02:01:33.131Z,99644.09
2023-03-26T02:01:54.232Z,99646.91
2023-03-26T02:02:12.810Z,99649.56
2023-03-26T02:02:37.067Z,99650.38
2023-03-26T02:03:15.087Z,99646.91
2023-03-26T02:03:31.508Z,99655.91
2023-03-26T02:03:50.757Z,99652.22
2023-03-26T02:04:11.377Z,99650.59
2023-03-26T02:04:32.016Z,99654.88
2023-03-26T02:04:52.038Z,99653.03
2023-03-26T02:05:13.022Z,99653.69
2023-03-26T02:05:29.526Z,99653.34
2023-03-26T02:05:49.094Z,99650.47
2023-03-26T02:06:10.848Z,99653.78
2023-03-26T02:06:30.724Z,99655.22
2023-03-26T02:06:46.496Z,99653.41
2023-03-26T02:07:03.573Z,99647.09
2023-03-26T02:07:21.907Z,99648.75
2023-03-26T02:07:41.788Z,99649.34
2023-03-26T02:08:02.713Z,99651.19
2023-03-26T02:08:20.721Z,99651.03
2023-03-26T02:08:36.799Z,99651.84
2023-03-26T02:08:53.669Z,99655.13
2023-03-26T02:09:09.549Z,99657.78
2023-03-26T02:09:28.926Z,99655.97
2023-03-26T02:09:47.001Z,99661.09
2023-03-26T02:10:02.237Z,99653.13
2023-03-26T02:10:16.380Z,99654.75
2023-03-26T02:10:36.610Z,99656.41
2023-03-26T02:10:51.723Z,99652.94
2023-03-26T02:11:06.988Z,99651.91
2023-03-26T02:11:21.624Z,99657.25
2023-03-26T02:11:37.874Z,99644.13
2023-03-26T02:11:51.582Z,99657.69
2023-03-26T02:12:07.388Z,99660.34
2023-03-26T02:12:21.139Z,99656.69
2023-03-26T02:12:35.705Z,99653.19
2023-03-26T02:12:48.862Z,99655.47
2023-03-26T02:13:01.821Z,99661.44
2023-03-26T02:13:16.286Z,99656.28
2023-03-26T02:13:30.412Z,99656.13
2023-03-26T02:13:45.484Z,99657.78
2023-03-26T02:14:00.222Z,99662.06
2023-03-26T02:14:13.714Z,99655.13
2023-03-26T02:14:28.988Z,99660.06
2023-03-26T02:14:42.117Z,99661.03
2023-03-26T02:14:55.135Z,99663.53
2023-03-26T02:15:09.228Z,99656.38
2023-03-26T02:15:21.760Z,99657.22
2023-03-26T02:15:33.975Z,99662.53
2023-03-26T02:15:57.017Z,99653.91
2023-03-26T02:16:12.734Z,99664.81
2023-03-26T02:16:25.132Z,99664.97
2023-03-26T02:16:39.024Z,99662.16
2023-03-26T02:16:51.614Z,99661.34
2023-03-26T02:17:04.706Z,99662.16
2023-03-26T02:17:17.022Z,99665.63
2023-03-26T02:17:29.798Z,99669.31
2023-03-26T02:17:42.849Z,99660.31
2023-03-26T02:17:56.875Z,99665.63
2023-03-26T02:18:09.399Z,99665.63
2023-03-26T02:18:22.081Z,99660.31
2023-03-26T02:18:34.787Z,99664.81
2023-03-26T02:18:50.508Z,99664.97
2023-03-26T02:19:04.117Z,99662.16
2023-03-26T02:19:17.307Z,99661.34
2023-03-26T02:19:30.091Z,99665.63
2023-03-26T02:19:42.994Z,99663.16
2023-03-26T02:19:55.449Z,99672.78
2023-03-26T02:20:09.366Z,99665.63
2023-03-26T02:20:21.973Z,99661.34
2023-03-26T02:20:34.773Z,99658.69
2023-03-26T02:20:47.442Z,99661.34
2023-03-26T02:21:00.194Z,99665.81
2023-03-26T02:21:14.808Z,99658.03
2023-03-26T02:21:28.601Z,99660.69
2023-03-26T02:21:43.298Z,99665.81
2023-03-26T02:21:55.917Z,99660.47
2023-03-26T02:22:08.630Z,99663.16
2023-03-26T02:22:21.199Z,99664.16
2023-03-26T02:22:33.786Z,99667.84
2023-03-26T02:22:47.612Z,99660.69
2023-03-26T02:23:02.905Z,99659.66
2023-03-26T02:23:15.908Z,99662.31
2023-03-26T02:23:29.676Z,99661.50
2023-03-26T02:23:45.956Z,99661.69
2023-03-26T02:23:58.689Z,99671.13
2023-03-26T02:24:13.783Z,99668.66
2023-03-26T02:24:28.380Z,99661.50
2023-03-26T02:24:43.022Z,99661.50
2023-03-26T02:24:56.106Z,99670.31
2023-03-26T02:25:10.133Z,99668.47
2023-03-26T02:25:24.609Z,99662.97
2023-03-26T02:25:37.447Z,99666.44
2023-03-26T02:25:49.809Z,99660.31
2023-03-26T02:26:05.274Z,99662.78
2023-03-26T02:26:19.983Z,99668.94
2023-03-26T02:26:42.472Z,99666.91
2023-03-26T02:26:57.163Z,99659.75
2023-03-26T02:27:10.443Z,99651.13
2023-03-26T02:27:22.950Z,99660.78
2023-03-26T02:27:36.302Z,99657.91
2023-03-26T02:27:50.689Z,99652.59
2023-03-26T02:28:03.486Z,99657.53
2023-03-26T02:28:15.991Z,99654.25
2023-03-26T02:28:29.079Z,99663.69
2023-03-26T02:28:42.169Z,99660.84
2023-03-26T02:28:54.574Z,99660.00
2023-03-26T02:29:06.699Z,99663.50
2023-03-26T02:29:21.457Z,99654.69
2023-03-26T02:29:35.750Z,99657.34
2023-03-26T02:29:48.927Z,99660.84
2023-03-26T02:30:03.726Z,99654.69
2023-03-26T02:30:18.173Z,99663.50
2023-03-26T02:30:34.589Z,99663.69
2023-03-26T02:30:47.895Z,99659.19
2023-03-26T02:31:03.815Z,99655.06
2023-03-26T02:31:17.360Z,99661.03
2023-03-26T02:31:30.523Z,99655.06
2023-03-26T02:31:43.323Z,99654.88
2023-03-26T02:31:56.495Z,99658.53
2023-03-26T02:32:10.922Z,99653.22
2023-03-26T02:32:23.369Z,99655.06
2023-03-26T02:32:36.512Z,99643.78
2023-03-26T02:32:50.629Z,99661.59
2023-03-26T02:33:05.220Z,99661.59
2023-03-26T02:33:26.984Z,99653.78
2023-03-26T02:33:42.841Z,99658.09
2023-03-26T02:33:55.699Z,99651.13
2023-03-26T02:34:09.983Z,99662.78
2023-03-26T02:34:26.211Z,99649.50
2023-03-26T02:34:40.140Z,99661.75
2023-03-26T02:34:53.945Z,99652.97
2023-03-26T02:35:10.528Z,99658.28
2023-03-26T02:35:23.468Z,99648.03
2023-03-26T02:35:42.158Z,99651.34
2023-03-26T02:35:54.647Z,99655.00
2023-03-26T02:36:08.175Z,99656.00
2023-03-26T02:36:20.607Z,99658.69
2023-03-26T02:36:37.229Z,99656.84
2023-03-26T02:36:50.651Z,99653.34
2023-03-26T02:37:03.111Z,99647.19
2023-03-26T02:37:15.537Z,99654.34
2023-03-26T02:37:28.555Z,99654.34
2023-03-26T02:37:48.951Z,99645.94
2023-03-26T02:38:03.664Z,99652.50
2023-03-26T02:38:17.368Z,99655.16
2023-03-26T02:38:29.672Z,99654.34
2023-03-26T02:38:42.283Z,99654.16
2023-03-26T02:38:55.385Z,99652.72
2023-03-26T02:39:09.072Z,99645.56
2023-03-26T02:39:23.923Z,99651.69
2023-03-26T02:39:46.531Z,99646.38
2023-03-26T02:40:11.482Z,99643.06
2023-03-26T02:40:26.708Z,99650.06
2023-03-26T02:40:39.734Z,99644.75
2023-03-26T02:40:52.152Z,99639.41
2023-03-26T02:41:07.893Z,99647.56
2023-03-26T02:41:35.998Z,99651.25
2023-03-26T02:41:53.523Z,99639.59
2023-03-26T02:42:06.986Z,99646.75
2023-03-26T02:42:26.610Z,99638.78
2023-03-26T02:42:39.014Z,99650.22
2023-03-26T02:42:51.873Z,99648.41
2023-03-26T02:43:04.183Z,99645.94
2023-03-26T02:43:17.787Z,99647.75
2023-03-26T02:43:30.254Z,99645.09
2023-03-26T02:43:42.875Z,99642.66
2023-03-26T02:43:59.429Z,99647.75
2023-03-26T02:44:33.798Z,99640.97
2023-03-26T02:44:46.223Z,99638.16
2023-03-26T02:45:06.333Z,99647.16
2023-03-26T02:45:33.856Z,99640.97
2023-03-26T02:45:53.607Z,99643.63
2023-03-26T02:46:35.238Z,99634.03
2023-03-26T02:47:06.392Z,99637.31
2023-03-26T02:47:33.535Z,99632.81
2023-03-26T02:48:12.072Z,99632.00
2023-03-26T02:48:32.703Z,99643.47
2023-03-26T02:48:53.904Z,99631.19
2023-03-26T02:49:10.386Z,99640.41
2023-03-26T02:49:22.696Z,99634.28
2023-03-26T02:49:35.463Z,99633.47
2023-03-26T02:49:48.453Z,99634.28
2023-03-26T02:50:20.909Z,99635.72
2023-03-26T02:50:56.450Z,99633.91
2023-03-26T02:51:25.653Z,99629.59
2023-03-26T02:51:44.660Z,99629.13
2023-03-26T02:52:05.770Z,99629.59
2023-03-26T02:52:20.811Z,99635.94
2023-03-26T02:52:35.969Z,99630.63
2023-03-26T02:52:48.216Z,99638.41
2023-03-26T02:53:00.222Z,99632.25
2023-03-26T02:53:14.589Z,99634.91
2023-03-26T02:53:30.450Z,99628.16
2023-03-26T02:54:15.132Z,99635.09
2023-03-26T02:54:39.727Z,99635.09
2023-03-26T02:54:53.634Z,99632.25
2023-03-26T02:55:09.046Z,99623.47
2023-03-26T02:55:23.413Z,99634.09
2023-03-26T02:55:38.494Z,99631.44
2023-03-26T02:55:51.438Z,99630.63
2023-03-26T02:56:06.263Z,99628.16
2023-03-26T02:56:26.529Z,99631.63
2023-03-26T02:56:59.510Z,99623.81
2023-03-26T02:57:35.504Z,99623.66
2023-03-26T02:57:58.538Z,99626.31
2023-03-26T02:58:17.871Z,99628.16
2023-03-26T02:58:30.890Z,99624.66
2023-03-26T02:58:44.070Z,99622.84
2023-03-26T02:58:58.426Z,99622.00
2023-03-26T02:59:11.652Z,99626.47
2023-03-26T02:59:25.714Z,99630.00
2023-03-26T02:59:58.736Z,99623.66
2023-03-26T03:00:22.947Z,99619.16
2023-03-26T03:01:07.897Z,99620.34
2023-03-26T03:01:28.907Z,99624.47
2023-03-26T03:01:41.349Z,99628.97
2023-03-26T03:01:54.744Z,99621.00
2023-03-26T03:02:08.169Z,99626.31
2023-03-26T03:02:22.961Z,99629.13
2023-03-26T03:02:36.086Z,99628.31
2023-03-26T03:03:06.805Z,99627.50
2023-03-26T03:04:20.631Z,99634.47
2023-03-26T03:04:34.703Z,99630.00
2023-03-26T03:04:47.503Z,99636.31
2023-03-26T03:05:01.082Z,99631.38
2023-03-26T03:05:18.050Z,99635.47
2023-03-26T03:05:32.749Z,99627.50
2023-03-26T03:06:07.258Z,99629.34
2023-03-26T03:06:25.869Z,99632.81
2023-03-26T03:06:43.515Z,99645.31
2023-03-26T03:06:56.312Z,99632.00
2023-03-26T03:07:08.916Z,99636.50
2023-03-26T03:07:21.804Z,99639.16
2023-03-26T03:07:33.731Z,99643.47
2023-03-26T03:07:47.660Z,99635.47
2023-03-26T03:08:01.137Z,99646.13
2023-03-26T03:08:15.961Z,99632.00
2023-03-26T03:08:43.941Z,99644.28
2023-03-26T03:10:04.841Z,99641.81
2023-03-26T03:10:39.815Z,99633.84
2023-03-26T03:10:58.595Z,99631.38
2023-03-26T03:11:26.887Z,99631.38
2023-03-26T03:11:41.702Z,99641.19